sensor_id;sensor_type;location;lat;lon;timestamp;P1;durP1;ratioP1;P2;durP2;ratioP2
2390;SDS011;22957;50.824;4.360;2022-09-12T00:00:07;6.70;;;5.13;;
2390;SDS011;22957;50.824;4.360;2022-09-12T00:03:32;13.57;;;5.07;;
2390;SDS011;22957;50.824;4.360;2022-09-12T00:06:40;5.97;;;5.40;;
2390;SDS011;22957;50.824;4.360;2022-09-12T00:09:45;12.03;;;5.83;;
2390;SDS011;22957;50.824;4.360;2022-09-12T00:12:49;9.17;;;6.50;;
2390;SDS011;22957;50.824;4.360;2022-09-12T00:15:26;5.33;;;4.50;;
2390;SDS011;22957;50.824;4.360;2022-09-12T00:17:52;7.70;;;6.60;;
2390;SDS011;22957;50.824;4.360;2022-09-12T00:20:17;6.40;;;5.20;;
2390;SDS011;22957;50.824;4.360;2022-09-12T00:22:43;10.60;;;5.80;;
2390;SDS011;22957;50.824;4.360;2022-09-12T00:25:09;6.00;;;5.33;;
2390;SDS011;22957;50.824;4.360;2022-09-12T00:27:34;7.30;;;5.83;;
2390;SDS011;22957;50.824;4.360;2022-09-12T00:30:00;6.60;;;5.67;;
2390;SDS011;22957;50.824;4.360;2022-09-12T00:32:26;8.43;;;5.30;;
2390;SDS011;22957;50.824;4.360;2022-09-12T00:34:51;5.13;;;4.63;;
2390;SDS011;22957;50.824;4.360;2022-09-12T00:37:17;6.47;;;5.07;;
2390;SDS011;22957;50.824;4.360;2022-09-12T00:39:42;6.97;;;5.50;;
2390;SDS011;22957;50.824;4.360;2022-09-12T00:42:09;6.50;;;5.70;;
2390;SDS011;22957;50.824;4.360;2022-09-12T00:47:18;6.30;;;5.77;;
2390;SDS011;22957;50.824;4.360;2022-09-12T00:49:56;10.70;;;6.60;;
2390;SDS011;22957;50.824;4.360;2022-09-12T00:52:51;8.90;;;6.57;;
2390;SDS011;22957;50.824;4.360;2022-09-12T00:55:21;7.87;;;6.50;;
2390;SDS011;22957;50.824;4.360;2022-09-12T00:58:11;7.33;;;5.80;;
2390;SDS011;22957;50.824;4.360;2022-09-12T01:00:43;6.97;;;4.80;;
2390;SDS011;22957;50.824;4.360;2022-09-12T01:03:10;8.60;;;6.30;;
2390;SDS011;22957;50.824;4.360;2022-09-12T01:05:39;11.27;;;6.80;;
2390;SDS011;22957;50.824;4.360;2022-09-12T01:08:14;8.20;;;6.40;;
2390;SDS011;22957;50.824;4.360;2022-09-12T01:10:41;11.30;;;7.03;;
2390;SDS011;22957;50.824;4.360;2022-09-12T01:13:08;7.23;;;6.17;;
2390;SDS011;22957;50.824;4.360;2022-09-12T01:15:38;7.70;;;6.67;;
2390;SDS011;22957;50.824;4.360;2022-09-12T01:34:25;8.20;;;6.90;;
2390;SDS011;22957;50.824;4.360;2022-09-12T01:37:26;8.80;;;6.63;;
2390;SDS011;22957;50.824;4.360;2022-09-12T01:42:43;8.00;;;5.10;;
2390;SDS011;22957;50.824;4.360;2022-09-12T01:47:58;10.03;;;7.00;;
2390;SDS011;22957;50.824;4.360;2022-09-12T01:50:35;8.90;;;7.73;;
2390;SDS011;22957;50.824;4.360;2022-09-12T01:53:15;6.53;;;5.63;;
2390;SDS011;22957;50.824;4.360;2022-09-12T01:55:56;7.77;;;6.40;;
2390;SDS011;22957;50.824;4.360;2022-09-12T01:58:41;7.93;;;7.13;;
2390;SDS011;22957;50.824;4.360;2022-09-12T02:01:34;7.10;;;6.27;;
2390;SDS011;22957;50.824;4.360;2022-09-12T02:04:16;12.90;;;7.23;;
2390;SDS011;22957;50.824;4.360;2022-09-12T02:06:51;6.87;;;6.17;;
2390;SDS011;22957;50.824;4.360;2022-09-12T02:11:49;9.50;;;7.37;;
2390;SDS011;22957;50.824;4.360;2022-09-12T02:14:21;9.90;;;7.47;;
2390;SDS011;22957;50.824;4.360;2022-09-12T02:17:00;11.57;;;7.50;;
2390;SDS011;22957;50.824;4.360;2022-09-12T02:19:42;10.53;;;6.90;;
2390;SDS011;22957;50.824;4.360;2022-09-12T02:22:16;9.13;;;7.60;;
2390;SDS011;22957;50.824;4.360;2022-09-12T02:24:45;7.90;;;6.63;;
2390;SDS011;22957;50.824;4.360;2022-09-12T02:27:15;8.40;;;6.93;;
2390;SDS011;22957;50.824;4.360;2022-09-12T02:29:46;12.47;;;6.97;;
2390;SDS011;22957;50.824;4.360;2022-09-12T02:32:29;6.97;;;6.37;;
2390;SDS011;22957;50.824;4.360;2022-09-12T02:35:38;8.97;;;6.43;;
2390;SDS011;22957;50.824;4.360;2022-09-12T02:38:25;7.03;;;5.23;;
2390;SDS011;22957;50.824;4.360;2022-09-12T02:41:00;6.43;;;5.80;;
2390;SDS011;22957;50.824;4.360;2022-09-12T02:43:26;7.17;;;5.73;;
2390;SDS011;22957;50.824;4.360;2022-09-12T02:45:52;7.10;;;6.30;;
2390;SDS011;22957;50.824;4.360;2022-09-12T02:48:27;8.63;;;5.90;;
2390;SDS011;22957;50.824;4.360;2022-09-12T02:50:58;6.60;;;5.70;;
2390;SDS011;22957;50.824;4.360;2022-09-12T02:53:25;7.57;;;5.53;;
2390;SDS011;22957;50.824;4.360;2022-09-12T02:55:51;4.40;;;4.00;;
2390;SDS011;22957;50.824;4.360;2022-09-12T02:58:18;5.63;;;4.83;;
2390;SDS011;22957;50.824;4.360;2022-09-12T03:03:20;8.20;;;4.67;;
2390;SDS011;22957;50.824;4.360;2022-09-12T03:05:56;5.20;;;4.23;;
2390;SDS011;22957;50.824;4.360;2022-09-12T03:08:32;7.00;;;5.30;;
2390;SDS011;22957;50.824;4.360;2022-09-12T03:13:46;7.30;;;4.60;;
2390;SDS011;22957;50.824;4.360;2022-09-12T03:28:13;5.87;;;4.90;;
2390;SDS011;22957;50.824;4.360;2022-09-12T03:30:45;5.57;;;5.07;;
2390;SDS011;22957;50.824;4.360;2022-09-12T03:33:13;12.13;;;5.53;;
2390;SDS011;22957;50.824;4.360;2022-09-12T03:35:44;5.37;;;4.87;;
2390;SDS011;22957;50.824;4.360;2022-09-12T03:38:12;6.90;;;5.33;;
2390;SDS011;22957;50.824;4.360;2022-09-12T03:40:39;5.20;;;4.37;;
2390;SDS011;22957;50.824;4.360;2022-09-12T03:43:06;4.87;;;4.40;;
2390;SDS011;22957;50.824;4.360;2022-09-12T03:45:34;4.87;;;4.37;;
2390;SDS011;22957;50.824;4.360;2022-09-12T03:48:00;4.67;;;4.13;;
2390;SDS011;22957;50.824;4.360;2022-09-12T03:50:28;4.90;;;4.43;;
2390;SDS011;22957;50.824;4.360;2022-09-12T03:52:54;5.47;;;4.70;;
2390;SDS011;22957;50.824;4.360;2022-09-12T03:55:30;7.73;;;6.53;;
2390;SDS011;22957;50.824;4.360;2022-09-12T03:57:56;7.63;;;6.10;;
2390;SDS011;22957;50.824;4.360;2022-09-12T04:00:22;8.37;;;6.53;;
2390;SDS011;22957;50.824;4.360;2022-09-12T04:02:54;9.90;;;7.10;;
2390;SDS011;22957;50.824;4.360;2022-09-12T04:05:21;7.77;;;5.90;;
2390;SDS011;22957;50.824;4.360;2022-09-12T04:07:48;5.00;;;4.50;;
2390;SDS011;22957;50.824;4.360;2022-09-12T04:10:15;5.77;;;4.03;;
2390;SDS011;22957;50.824;4.360;2022-09-12T04:12:41;5.97;;;4.67;;
2390;SDS011;22957;50.824;4.360;2022-09-12T04:15:07;8.63;;;6.53;;
2390;SDS011;22957;50.824;4.360;2022-09-12T04:17:34;7.77;;;6.80;;
2390;SDS011;22957;50.824;4.360;2022-09-12T04:20:01;6.30;;;4.60;;
2390;SDS011;22957;50.824;4.360;2022-09-12T04:22:27;6.63;;;5.20;;
2390;SDS011;22957;50.824;4.360;2022-09-12T04:24:55;8.13;;;5.30;;
2390;SDS011;22957;50.824;4.360;2022-09-12T04:27:22;7.30;;;5.70;;
2390;SDS011;22957;50.824;4.360;2022-09-12T04:29:52;4.53;;;4.13;;
2390;SDS011;22957;50.824;4.360;2022-09-12T04:32:24;6.53;;;5.67;;
2390;SDS011;22957;50.824;4.360;2022-09-12T04:35:06;9.13;;;5.97;;
2390;SDS011;22957;50.824;4.360;2022-09-12T04:37:54;7.20;;;5.20;;
2390;SDS011;22957;50.824;4.360;2022-09-12T04:40:29;10.77;;;5.87;;
2390;SDS011;22957;50.824;4.360;2022-09-12T04:42:56;8.23;;;5.93;;
2390;SDS011;22957;50.824;4.360;2022-09-12T04:45:22;11.90;;;6.33;;
2390;SDS011;22957;50.824;4.360;2022-09-12T04:47:48;7.63;;;6.00;;
2390;SDS011;22957;50.824;4.360;2022-09-12T04:50:39;8.00;;;5.80;;
2390;SDS011;22957;50.824;4.360;2022-09-12T04:53:16;9.97;;;6.93;;
2390;SDS011;22957;50.824;4.360;2022-09-12T04:56:05;8.07;;;6.27;;
2390;SDS011;22957;50.824;4.360;2022-09-12T04:58:40;9.77;;;7.03;;
2390;SDS011;22957;50.824;4.360;2022-09-12T05:01:08;14.23;;;6.20;;
2390;SDS011;22957;50.824;4.360;2022-09-12T05:03:43;8.87;;;5.97;;
2390;SDS011;22957;50.824;4.360;2022-09-12T05:06:12;9.67;;;6.90;;
2390;SDS011;22957;50.824;4.360;2022-09-12T05:08:41;9.60;;;7.20;;
2390;SDS011;22957;50.824;4.360;2022-09-12T05:11:11;7.63;;;6.83;;
2390;SDS011;22957;50.824;4.360;2022-09-12T05:13:41;9.07;;;6.47;;
2390;SDS011;22957;50.824;4.360;2022-09-12T05:16:29;7.10;;;5.63;;
2390;SDS011;22957;50.824;4.360;2022-09-12T05:18:57;6.37;;;5.77;;
2390;SDS011;22957;50.824;4.360;2022-09-12T05:21:27;11.33;;;7.20;;
2390;SDS011;22957;50.824;4.360;2022-09-12T05:23:58;10.90;;;7.97;;
2390;SDS011;22957;50.824;4.360;2022-09-12T05:26:48;9.00;;;7.00;;
2390;SDS011;22957;50.824;4.360;2022-09-12T05:29:17;8.07;;;6.00;;
2390;SDS011;22957;50.824;4.360;2022-09-12T05:31:46;11.50;;;8.47;;
2390;SDS011;22957;50.824;4.360;2022-09-12T05:34:14;10.03;;;7.57;;
2390;SDS011;22957;50.824;4.360;2022-09-12T05:36:40;10.00;;;5.60;;
2390;SDS011;22957;50.824;4.360;2022-09-12T05:39:06;9.10;;;6.67;;
2390;SDS011;22957;50.824;4.360;2022-09-12T05:41:34;7.17;;;6.47;;
2390;SDS011;22957;50.824;4.360;2022-09-12T05:44:05;9.40;;;6.77;;
2390;SDS011;22957;50.824;4.360;2022-09-12T05:46:52;9.20;;;5.10;;
2390;SDS011;22957;50.824;4.360;2022-09-12T05:49:29;6.20;;;5.00;;
2390;SDS011;22957;50.824;4.360;2022-09-12T05:51:55;13.97;;;6.60;;
2390;SDS011;22957;50.824;4.360;2022-09-12T05:54:24;7.67;;;5.80;;
2390;SDS011;22957;50.824;4.360;2022-09-12T05:57:14;10.50;;;6.70;;
2390;SDS011;22957;50.824;4.360;2022-09-12T06:02:15;13.17;;;7.20;;
2390;SDS011;22957;50.824;4.360;2022-09-12T06:05:04;9.20;;;6.40;;
2390;SDS011;22957;50.824;4.360;2022-09-12T06:08:04;6.43;;;5.80;;
2390;SDS011;22957;50.824;4.360;2022-09-12T06:10:50;7.40;;;5.77;;
2390;SDS011;22957;50.824;4.360;2022-09-12T06:13:43;12.33;;;6.90;;
2390;SDS011;22957;50.824;4.360;2022-09-12T06:16:24;5.73;;;5.20;;
2390;SDS011;22957;50.824;4.360;2022-09-12T06:19:32;12.53;;;7.10;;
2390;SDS011;22957;50.824;4.360;2022-09-12T06:22:17;6.80;;;5.20;;
2390;SDS011;22957;50.824;4.360;2022-09-12T06:24:46;6.70;;;4.40;;
2390;SDS011;22957;50.824;4.360;2022-09-12T06:27:15;8.70;;;5.07;;
2390;SDS011;22957;50.824;4.360;2022-09-12T06:30:01;8.63;;;5.70;;
2390;SDS011;22957;50.824;4.360;2022-09-12T06:32:50;9.50;;;5.00;;
2390;SDS011;22957;50.824;4.360;2022-09-12T06:35:37;8.60;;;4.40;;
2390;SDS011;22957;50.824;4.360;2022-09-12T06:38:11;10.37;;;4.73;;
2390;SDS011;22957;50.824;4.360;2022-09-12T06:40:51;4.67;;;4.17;;
2390;SDS011;22957;50.824;4.360;2022-09-12T06:43:36;4.43;;;3.40;;
2390;SDS011;22957;50.824;4.360;2022-09-12T06:46:04;4.33;;;3.93;;
2390;SDS011;22957;50.824;4.360;2022-09-12T06:48:33;7.17;;;4.83;;
2390;SDS011;22957;50.824;4.360;2022-09-12T06:53:59;8.07;;;3.33;;
2390;SDS011;22957;50.824;4.360;2022-09-12T06:56:48;6.00;;;3.37;;
2390;SDS011;22957;50.824;4.360;2022-09-12T06:59:18;9.23;;;3.20;;
2390;SDS011;22957;50.824;4.360;2022-09-12T07:01:44;4.93;;;3.40;;
2390;SDS011;22957;50.824;4.360;2022-09-12T07:04:11;17.00;;;4.00;;
2390;SDS011;22957;50.824;4.360;2022-09-12T07:06:39;5.37;;;3.50;;
2390;SDS011;22957;50.824;4.360;2022-09-12T07:09:09;5.30;;;3.10;;
2390;SDS011;22957;50.824;4.360;2022-09-12T07:11:39;4.80;;;3.70;;
2390;SDS011;22957;50.824;4.360;2022-09-12T07:16:53;4.77;;;3.40;;
2390;SDS011;22957;50.824;4.360;2022-09-12T07:19:42;6.30;;;3.80;;
2390;SDS011;22957;50.824;4.360;2022-09-12T07:22:44;8.23;;;2.70;;
2390;SDS011;22957;50.824;4.360;2022-09-12T07:25:53;5.47;;;3.17;;
2390;SDS011;22957;50.824;4.360;2022-09-12T07:29:03;7.90;;;3.17;;
2390;SDS011;22957;50.824;4.360;2022-09-12T07:39:58;3.93;;;2.53;;
2390;SDS011;22957;50.824;4.360;2022-09-12T07:43:16;2.80;;;2.37;;
2390;SDS011;22957;50.824;4.360;2022-09-12T07:51:19;4.67;;;3.10;;
2390;SDS011;22957;50.824;4.360;2022-09-12T07:56:23;2.70;;;2.50;;
2390;SDS011;22957;50.824;4.360;2022-09-12T07:58:53;4.50;;;2.80;;
2390;SDS011;22957;50.824;4.360;2022-09-12T08:01:58;2.63;;;1.83;;
2390;SDS011;22957;50.824;4.360;2022-09-12T08:04:35;2.67;;;2.07;;
2390;SDS011;22957;50.824;4.360;2022-09-12T08:08:01;3.30;;;1.90;;
2390;SDS011;22957;50.824;4.360;2022-09-12T08:11:28;3.40;;;2.30;;
2390;SDS011;22957;50.824;4.360;2022-09-12T08:14:23;3.03;;;1.87;;
2390;SDS011;22957;50.824;4.360;2022-09-12T08:53:52;3.17;;;1.50;;
2390;SDS011;22957;50.824;4.360;2022-09-12T08:59:36;2.73;;;1.70;;
2390;SDS011;22957;50.824;4.360;2022-09-12T09:55:02;7.83;;;1.70;;
2390;SDS011;22957;50.824;4.360;2022-09-12T10:03:40;1.60;;;1.23;;
2390;SDS011;22957;50.824;4.360;2022-09-12T10:54:27;3.30;;;1.10;;
2390;SDS011;22957;50.824;4.360;2022-09-12T11:20:56;3.93;;;1.40;;
2390;SDS011;22957;50.824;4.360;2022-09-12T11:26:17;1.63;;;1.20;;
2390;SDS011;22957;50.824;4.360;2022-09-12T17:08:49;1.40;;;1.00;;
2390;SDS011;22957;50.824;4.360;2022-09-12T17:11:27;1.40;;;0.90;;
2390;SDS011;22957;50.824;4.360;2022-09-12T17:16:42;2.47;;;1.33;;
2390;SDS011;22957;50.824;4.360;2022-09-12T17:19:24;5.27;;;1.47;;
2390;SDS011;22957;50.824;4.360;2022-09-12T17:21:52;5.13;;;1.00;;
2390;SDS011;22957;50.824;4.360;2022-09-12T17:24:19;1.30;;;0.93;;
2390;SDS011;22957;50.824;4.360;2022-09-12T17:26:45;4.40;;;1.00;;
2390;SDS011;22957;50.824;4.360;2022-09-12T17:40:09;1.60;;;1.10;;
2390;SDS011;22957;50.824;4.360;2022-09-12T17:45:13;1.97;;;1.60;;
2390;SDS011;22957;50.824;4.360;2022-09-12T17:47:40;2.83;;;1.27;;
2390;SDS011;22957;50.824;4.360;2022-09-12T18:03:29;1.70;;;1.10;;
2390;SDS011;22957;50.824;4.360;2022-09-12T18:27:39;8.20;;;2.67;;
2390;SDS011;22957;50.824;4.360;2022-09-12T18:30:28;4.27;;;2.77;;
2390;SDS011;22957;50.824;4.360;2022-09-12T18:33:30;3.10;;;2.57;;
2390;SDS011;22957;50.824;4.360;2022-09-12T18:41:09;4.53;;;2.50;;
2390;SDS011;22957;50.824;4.360;2022-09-12T18:43:59;8.63;;;2.40;;
2390;SDS011;22957;50.824;4.360;2022-09-12T18:46:29;3.10;;;2.40;;
2390;SDS011;22957;50.824;4.360;2022-09-12T18:48:59;3.90;;;3.10;;
2390;SDS011;22957;50.824;4.360;2022-09-12T18:51:30;6.57;;;3.50;;
2390;SDS011;22957;50.824;4.360;2022-09-12T18:54:33;3.47;;;3.17;;
2390;SDS011;22957;50.824;4.360;2022-09-12T18:57:09;2.17;;;1.93;;
2390;SDS011;22957;50.824;4.360;2022-09-12T19:00:00;6.13;;;2.10;;
2390;SDS011;22957;50.824;4.360;2022-09-12T19:02:48;6.27;;;3.00;;
2390;SDS011;22957;50.824;4.360;2022-09-12T19:05:27;4.20;;;2.27;;
2390;SDS011;22957;50.824;4.360;2022-09-12T19:08:14;11.33;;;3.20;;
2390;SDS011;22957;50.824;4.360;2022-09-12T19:10:44;2.67;;;2.30;;
2390;SDS011;22957;50.824;4.360;2022-09-12T19:13:50;3.70;;;2.40;;
2390;SDS011;22957;50.824;4.360;2022-09-12T19:16:36;3.77;;;2.10;;
2390;SDS011;22957;50.824;4.360;2022-09-12T19:19:05;3.10;;;2.00;;
2390;SDS011;22957;50.824;4.360;2022-09-12T19:24:08;3.90;;;2.27;;
2390;SDS011;22957;50.824;4.360;2022-09-12T19:26:35;5.00;;;2.53;;
2390;SDS011;22957;50.824;4.360;2022-09-12T19:29:09;2.80;;;2.10;;
2390;SDS011;22957;50.824;4.360;2022-09-12T19:31:52;1.93;;;1.60;;
2390;SDS011;22957;50.824;4.360;2022-09-12T19:34:39;1.83;;;1.30;;
2390;SDS011;22957;50.824;4.360;2022-09-12T19:37:06;2.43;;;1.63;;
2390;SDS011;22957;50.824;4.360;2022-09-12T19:39:34;1.57;;;1.23;;
2390;SDS011;22957;50.824;4.360;2022-09-12T19:47:32;3.00;;;1.87;;
2390;SDS011;22957;50.824;4.360;2022-09-12T19:50:00;2.47;;;1.53;;
2390;SDS011;22957;50.824;4.360;2022-09-12T19:52:28;2.60;;;1.90;;
2390;SDS011;22957;50.824;4.360;2022-09-12T20:00:15;4.17;;;1.60;;
2390;SDS011;22957;50.824;4.360;2022-09-12T20:03:11;2.03;;;1.50;;
2390;SDS011;22957;50.824;4.360;2022-09-12T20:06:13;5.83;;;1.60;;
2390;SDS011;22957;50.824;4.360;2022-09-12T20:17:25;4.10;;;2.37;;
2390;SDS011;22957;50.824;4.360;2022-09-12T20:20:51;2.60;;;1.77;;
2390;SDS011;22957;50.824;4.360;2022-09-12T20:26:35;3.10;;;1.60;;
2390;SDS011;22957;50.824;4.360;2022-09-12T20:29:14;3.10;;;1.97;;
2390;SDS011;22957;50.824;4.360;2022-09-12T20:32:28;2.97;;;1.60;;
2390;SDS011;22957;50.824;4.360;2022-09-12T20:35:08;2.33;;;1.57;;
2390;SDS011;22957;50.824;4.360;2022-09-12T20:37:58;1.60;;;1.23;;
2390;SDS011;22957;50.824;4.360;2022-09-12T20:40:47;3.10;;;1.70;;
2390;SDS011;22957;50.824;4.360;2022-09-12T20:53:45;2.30;;;1.70;;
2390;SDS011;22957;50.824;4.360;2022-09-12T20:56:50;2.97;;;1.67;;
2390;SDS011;22957;50.824;4.360;2022-09-12T20:59:28;4.00;;;1.63;;
2390;SDS011;22957;50.824;4.360;2022-09-12T21:02:17;4.37;;;1.90;;
2390;SDS011;22957;50.824;4.360;2022-09-12T21:10:25;5.97;;;2.70;;
2390;SDS011;22957;50.824;4.360;2022-09-12T21:13:35;3.80;;;2.10;;
2390;SDS011;22957;50.824;4.360;2022-09-12T21:16:15;5.53;;;2.50;;
2390;SDS011;22957;50.824;4.360;2022-09-12T21:19:24;3.83;;;2.33;;
2390;SDS011;22957;50.824;4.360;2022-09-12T21:22:14;4.73;;;2.87;;
2390;SDS011;22957;50.824;4.360;2022-09-12T21:25:20;2.10;;;1.70;;
2390;SDS011;22957;50.824;4.360;2022-09-12T21:28:29;3.93;;;2.37;;
2390;SDS011;22957;50.824;4.360;2022-09-12T21:30:56;3.83;;;2.47;;
2390;SDS011;22957;50.824;4.360;2022-09-12T21:33:29;2.37;;;1.70;;
2390;SDS011;22957;50.824;4.360;2022-09-12T21:36:03;7.30;;;2.17;;
2390;SDS011;22957;50.824;4.360;2022-09-12T21:38:40;3.80;;;1.97;;
2390;SDS011;22957;50.824;4.360;2022-09-12T21:41:28;2.27;;;2.07;;
2390;SDS011;22957;50.824;4.360;2022-09-12T21:44:01;4.90;;;1.90;;
2390;SDS011;22957;50.824;4.360;2022-09-12T21:47:03;4.47;;;2.70;;
2390;SDS011;22957;50.824;4.360;2022-09-12T21:49:34;3.60;;;2.37;;
2390;SDS011;22957;50.824;4.360;2022-09-12T21:52:09;2.50;;;1.80;;
2390;SDS011;22957;50.824;4.360;2022-09-12T21:54:42;5.57;;;1.80;;
2390;SDS011;22957;50.824;4.360;2022-09-12T21:57:08;3.87;;;1.93;;
2390;SDS011;22957;50.824;4.360;2022-09-12T21:59:55;6.90;;;2.53;;
2390;SDS011;22957;50.824;4.360;2022-09-12T22:02:54;5.20;;;2.00;;
2390;SDS011;22957;50.824;4.360;2022-09-12T22:05:22;2.87;;;1.90;;
2390;SDS011;22957;50.824;4.360;2022-09-12T22:07:48;6.57;;;1.87;;
2390;SDS011;22957;50.824;4.360;2022-09-12T22:10:40;4.30;;;1.80;;
2390;SDS011;22957;50.824;4.360;2022-09-12T22:13:09;3.73;;;2.23;;
2390;SDS011;22957;50.824;4.360;2022-09-12T22:15:38;4.63;;;2.00;;
2390;SDS011;22957;50.824;4.360;2022-09-12T22:18:44;3.03;;;1.83;;
2390;SDS011;22957;50.824;4.360;2022-09-12T22:21:19;3.63;;;2.20;;
2390;SDS011;22957;50.824;4.360;2022-09-12T22:24:27;3.33;;;2.07;;
2390;SDS011;22957;50.824;4.360;2022-09-12T22:27:03;3.60;;;2.20;;
2390;SDS011;22957;50.824;4.360;2022-09-12T22:29:32;3.60;;;2.23;;
2390;SDS011;22957;50.824;4.360;2022-09-12T22:32:03;4.33;;;2.10;;
2390;SDS011;22957;50.824;4.360;2022-09-12T22:34:53;2.40;;;1.73;;
2390;SDS011;22957;50.824;4.360;2022-09-12T22:37:42;2.60;;;1.70;;
2390;SDS011;22957;50.824;4.360;2022-09-12T22:40:18;5.87;;;2.43;;
2390;SDS011;22957;50.824;4.360;2022-09-12T22:43:05;3.50;;;1.80;;
2390;SDS011;22957;50.824;4.360;2022-09-12T22:45:52;2.70;;;1.60;;
2390;SDS011;22957;50.824;4.360;2022-09-12T22:48:21;3.50;;;2.20;;
2390;SDS011;22957;50.824;4.360;2022-09-12T22:50:47;2.80;;;1.70;;
2390;SDS011;22957;50.824;4.360;2022-09-12T22:53:13;2.87;;;1.40;;
2390;SDS011;22957;50.824;4.360;2022-09-12T22:55:44;7.10;;;1.90;;
2390;SDS011;22957;50.824;4.360;2022-09-12T22:58:11;3.60;;;1.80;;
2390;SDS011;22957;50.824;4.360;2022-09-12T23:00:37;4.93;;;1.90;;
2390;SDS011;22957;50.824;4.360;2022-09-12T23:03:18;2.00;;;1.60;;
2390;SDS011;22957;50.824;4.360;2022-09-12T23:05:45;4.07;;;1.83;;
2390;SDS011;22957;50.824;4.360;2022-09-12T23:08:12;4.70;;;2.30;;
2390;SDS011;22957;50.824;4.360;2022-09-12T23:10:38;3.30;;;2.13;;
2390;SDS011;22957;50.824;4.360;2022-09-12T23:13:04;3.90;;;1.83;;
2390;SDS011;22957;50.824;4.360;2022-09-12T23:15:31;7.33;;;1.53;;
2390;SDS011;22957;50.824;4.360;2022-09-12T23:17:57;2.33;;;1.70;;
2390;SDS011;22957;50.824;4.360;2022-09-12T23:20:24;2.20;;;1.50;;
2390;SDS011;22957;50.824;4.360;2022-09-12T23:22:49;4.50;;;1.60;;
2390;SDS011;22957;50.824;4.360;2022-09-12T23:25:15;2.53;;;1.70;;
2390;SDS011;22957;50.824;4.360;2022-09-12T23:27:41;3.03;;;1.60;;
2390;SDS011;22957;50.824;4.360;2022-09-12T23:30:08;3.53;;;2.07;;
2390;SDS011;22957;50.824;4.360;2022-09-12T23:32:34;4.73;;;1.70;;
2390;SDS011;22957;50.824;4.360;2022-09-12T23:35:00;2.37;;;1.50;;
2390;SDS011;22957;50.824;4.360;2022-09-12T23:37:27;2.40;;;1.60;;
2390;SDS011;22957;50.824;4.360;2022-09-12T23:39:53;2.00;;;1.47;;
2390;SDS011;22957;50.824;4.360;2022-09-12T23:42:18;5.97;;;1.47;;
2390;SDS011;22957;50.824;4.360;2022-09-12T23:44:44;2.80;;;1.40;;
2390;SDS011;22957;50.824;4.360;2022-09-12T23:47:10;1.83;;;1.30;;
2390;SDS011;22957;50.824;4.360;2022-09-12T23:49:35;1.40;;;1.20;;
2390;SDS011;22957;50.824;4.360;2022-09-12T23:52:01;1.93;;;1.60;;
2390;SDS011;22957;50.824;4.360;2022-09-12T23:54:27;2.43;;;1.40;;
2390;SDS011;22957;50.824;4.360;2022-09-12T23:56:53;3.07;;;1.40;;
2390;SDS011;22957;50.824;4.360;2022-09-12T23:59:19;1.90;;;1.60;;
